createdAt,value
2024-04-17T00:00:45.275Z,97689.68
2024-04-17T00:03:07.705Z,97691.01
2024-04-17T00:05:12.258Z,97689.75
2024-04-17T00:07:15.077Z,97691.83
2024-04-17T00:09:17.878Z,97690.36
2024-04-17T00:11:22.065Z,97692.72
2024-04-17T00:13:24.730Z,97690.44
2024-04-17T00:15:27.341Z,97689.58
2024-04-17T00:17:29.813Z,97689.77
2024-04-17T00:19:32.221Z,97688.50
2024-04-17T00:21:35.299Z,97688.79
2024-04-17T00:23:38.938Z,97689.34
2024-04-17T00:25:41.502Z,97688.28
2024-04-17T00:27:43.925Z,97692.35
2024-04-17T00:29:46.366Z,97692.77
2024-04-17T00:31:48.841Z,97691.52
2024-04-17T00:33:51.404Z,97694.11
2024-04-17T00:35:53.829Z,97686.09
2024-04-17T00:37:57.374Z,97688.83
2024-04-17T00:39:59.763Z,97687.34
2024-04-17T00:42:02.477Z,97685.38
2024-04-17T00:44:05.557Z,97684.75
2024-04-17T00:46:14.003Z,97679.41
2024-04-17T00:48:17.947Z,97682.05
2024-04-17T00:50:20.566Z,97679.64
2024-04-17T00:52:24.073Z,97679.23
2024-04-17T00:54:26.610Z,97675.38
2024-04-17T00:56:29.416Z,97671.96
2024-04-17T00:58:32.217Z,97674.83
2024-04-17T01:00:37.208Z,97674.63
2024-04-17T01:02:40.045Z,97674.23
2024-04-17T01:04:42.575Z,97675.66
2024-04-17T01:06:45.074Z,97678.43
2024-04-17T01:08:47.899Z,97676.77
2024-04-17T01:11:02.484Z,97670.98
2024-04-17T01:13:05.186Z,97670.29
2024-04-17T01:15:12.302Z,97667.76
2024-04-17T01:17:15.023Z,97671.05
2024-04-17T01:19:18.025Z,97668.77
2024-04-17T01:21:20.418Z,97670.19
2024-04-17T01:23:22.989Z,97670.89
2024-04-17T01:25:25.556Z,97672.89
2024-04-17T01:27:27.992Z,97671.44
2024-04-17T01:29:30.441Z,97673.55
2024-04-17T01:31:32.864Z,97675.27
2024-04-17T01:33:36.425Z,97674.70
2024-04-17T01:35:38.881Z,97674.12
2024-04-17T01:37:41.392Z,97672.23
2024-04-17T01:39:44.456Z,97672.20
2024-04-17T01:41:46.843Z,97671.06
2024-04-17T01:43:49.604Z,97672.20
2024-04-17T01:45:52.553Z,97666.98
2024-04-17T01:47:55.285Z,97666.84
2024-04-17T01:49:58.247Z,97669.28
2024-04-17T01:52:00.606Z,97668.62
2024-04-17T01:54:03.061Z,97669.06
2024-04-17T01:56:06.003Z,97669.14
2024-04-17T01:58:08.553Z,97667.38
2024-04-17T02:00:11.662Z,97667.48
2024-04-17T02:02:14.049Z,97671.04
2024-04-17T02:04:16.532Z,97671.40
2024-04-17T02:06:19.373Z,97672.81
2024-04-17T02:08:21.814Z,97673.07
2024-04-17T02:10:24.371Z,97673.92
2024-04-17T02:12:26.814Z,97674.90
2024-04-17T02:14:29.192Z,97673.73
2024-04-17T02:16:32.474Z,97675.27
2024-04-17T02:18:35.203Z,97673.09
2024-04-17T02:20:37.767Z,97672.89
2024-04-17T02:22:40.249Z,97675.13
2024-04-17T02:24:42.754Z,97675.95
2024-04-17T02:26:45.111Z,97675.58
2024-04-17T02:28:47.741Z,97675.57
2024-04-17T02:30:50.802Z,97675.75
2024-04-17T02:32:53.390Z,97676.94
2024-04-17T02:34:55.996Z,97680.58
2024-04-17T02:36:58.603Z,97679.64
2024-04-17T02:39:01.078Z,97681.67
2024-04-17T02:41:03.610Z,97683.87
2024-04-17T02:43:06.434Z,97683.40
2024-04-17T02:45:09.103Z,97682.80
2024-04-17T02:47:12.092Z,97680.83
2024-04-17T02:49:14.596Z,97680.83
2024-04-17T02:51:17.006Z,97685.55
2024-04-17T02:53:19.384Z,97688.14
2024-04-17T02:55:21.818Z,97690.05
2024-04-17T02:57:24.315Z,97689.15
2024-04-17T02:59:26.815Z,97689.83
2024-04-17T03:01:29.374Z,97689.33
2024-04-17T03:03:31.924Z,97691.81
2024-04-17T03:05:35.179Z,97693.58
2024-04-17T03:07:37.659Z,97694.17
2024-04-17T03:09:40.464Z,97699.48
2024-04-17T03:11:42.863Z,97702.65
2024-04-17T03:13:46.283Z,97700.43
2024-04-17T03:15:48.651Z,97709.14
2024-04-17T03:17:51.282Z,97708.96
2024-04-17T03:19:53.961Z,97707.73
2024-04-17T03:21:56.316Z,97707.33
2024-04-17T03:23:58.704Z,97705.20
2024-04-17T03:26:02.151Z,97705.79
2024-04-17T03:28:05.338Z,97707.71
2024-04-17T03:30:08.576Z,97707.78
2024-04-17T03:32:11.001Z,97707.98
2024-04-17T03:34:13.480Z,97708.88
2024-04-17T03:36:20.722Z,97711.60
2024-04-17T03:38:25.567Z,97712.55
2024-04-17T03:40:28.265Z,97713.52
2024-04-17T03:42:31.996Z,97715.19
2024-04-17T03:44:34.456Z,97713.89
2024-04-17T03:46:37.012Z,97716.44
2024-04-17T03:48:39.425Z,97718.58
2024-04-17T03:50:41.917Z,97720.33
2024-04-17T03:52:44.437Z,97722.35
2024-04-17T03:54:46.877Z,97724.14
2024-04-17T03:56:49.242Z,97721.23
2024-04-17T03:58:51.706Z,97722.85
2024-04-17T04:00:54.329Z,97728.96
2024-04-17T04:02:57.060Z,97725.48
2024-04-17T04:04:59.663Z,97725.72
2024-04-17T04:07:02.107Z,97728.12
2024-04-17T04:09:04.533Z,97730.43
2024-04-17T04:11:07.199Z,97730.73
2024-04-17T04:13:09.743Z,97731.48
2024-04-17T04:15:12.314Z,97733.33
2024-04-17T04:17:14.806Z,97735.36
2024-04-17T04:19:17.336Z,97733.30
2024-04-17T04:21:19.781Z,97738.78
2024-04-17T04:23:22.227Z,97738.81
2024-04-17T04:25:24.753Z,97739.27
2024-04-17T04:27:27.306Z,97739.00
2024-04-17T04:29:29.730Z,97737.51
2024-04-17T04:31:32.430Z,97741.67
2024-04-17T04:33:34.966Z,97745.14
2024-04-17T04:35:37.802Z,97750.50
2024-04-17T04:37:43.127Z,97749.41
2024-04-17T04:39:46.876Z,97751.04
2024-04-17T04:41:49.406Z,97753.70
2024-04-17T04:43:51.778Z,97753.73
2024-04-17T04:45:54.327Z,97757.48
2024-04-17T04:47:56.807Z,97757.50
2024-04-17T04:49:59.305Z,97760.99
2024-04-17T04:52:01.941Z,97755.66
2024-04-17T04:54:04.387Z,97762.59
2024-04-17T04:56:07.023Z,97761.73
2024-04-17T04:58:09.474Z,97763.33
2024-04-17T05:00:12.310Z,97764.98
2024-04-17T05:02:15.012Z,97769.84
2024-04-17T05:04:17.596Z,97773.98
2024-04-17T05:06:19.995Z,97774.73
2024-04-17T05:08:22.420Z,97775.96
2024-04-17T05:10:24.846Z,97776.77
2024-04-17T05:12:27.591Z,97778.69
2024-04-17T05:14:30.008Z,97775.72
2024-04-17T05:16:32.529Z,97780.88
2024-04-17T05:18:35.883Z,97787.18
2024-04-17T05:20:38.799Z,97785.03
2024-04-17T05:22:41.436Z,97787.40
2024-04-17T05:24:43.875Z,97787.90
2024-04-17T05:26:46.603Z,97789.89
2024-04-17T05:28:49.036Z,97792.26
2024-04-17T05:31:00.691Z,97793.73
2024-04-17T05:33:03.621Z,97801.66
2024-04-17T05:35:06.587Z,97803.11
2024-04-17T05:37:08.997Z,97804.78
2024-04-17T05:39:11.448Z,97803.44
2024-04-17T05:41:13.957Z,97803.73
2024-04-17T05:43:17.179Z,97801.98
2024-04-17T05:45:19.588Z,97804.04
2024-04-17T05:47:22.153Z,97802.09
2024-04-17T05:49:24.715Z,97808.24
2024-04-17T05:51:27.060Z,97808.16
2024-04-17T05:53:29.503Z,97808.38
2024-04-17T05:55:33.191Z,97808.48
2024-04-17T05:57:35.672Z,97809.90
2024-04-17T05:59:38.047Z,97800.52
2024-04-17T06:01:40.457Z,97802.86
2024-04-17T06:03:43.141Z,97801.73
2024-04-17T06:05:45.606Z,97804.16
2024-04-17T06:07:48.068Z,97809.02
2024-04-17T06:09:50.500Z,97809.88
2024-04-17T06:11:53.679Z,97809.52
2024-04-17T06:13:56.724Z,97811.63
2024-04-17T06:15:59.168Z,97810.35
2024-04-17T06:18:01.664Z,97811.36
2024-04-17T06:20:04.569Z,97815.96
2024-04-17T06:22:07.008Z,97814.78
2024-04-17T06:24:09.804Z,97812.98
2024-04-17T06:26:15.475Z,97815.09
2024-04-17T06:28:18.926Z,97818.76
2024-04-17T06:30:21.432Z,97820.88
2024-04-17T06:32:24.020Z,97821.37
2024-04-17T06:34:26.574Z,97824.40
2024-04-17T06:36:29.059Z,97825.19
2024-04-17T06:38:31.657Z,97825.05
2024-04-17T06:40:34.094Z,97826.81
2024-04-17T06:42:36.628Z,97824.32
2024-04-17T06:44:40.028Z,97826.75
2024-04-17T06:46:43.133Z,97820.60
2024-04-17T06:48:45.646Z,97825.45
2024-04-17T06:50:48.172Z,97825.84
2024-04-17T06:52:50.730Z,97824.55
2024-04-17T06:54:53.242Z,97823.89
2024-04-17T06:56:55.681Z,97824.94
2024-04-17T06:58:58.077Z,97824.94
2024-04-17T07:01:00.697Z,97827.77
2024-04-17T07:03:05.282Z,97828.20
2024-04-17T07:05:08.958Z,97825.28
2024-04-17T07:07:11.492Z,97823.46
2024-04-17T07:09:14.137Z,97821.64
2024-04-17T07:11:17.341Z,97823.11
2024-04-17T07:13:20.127Z,97823.54
2024-04-17T07:15:22.794Z,97824.24
2024-04-17T07:17:25.833Z,97821.66
2024-04-17T07:19:28.348Z,97822.73
2024-04-17T07:21:30.863Z,97824.33
2024-04-17T07:23:33.356Z,97826.25
2024-04-17T07:25:35.773Z,97824.90
2024-04-17T07:27:38.157Z,97828.20
2024-04-17T07:29:40.576Z,97829.30
2024-04-17T07:31:44.705Z,97831.98
2024-04-17T07:33:50.001Z,97828.71
2024-04-17T07:35:59.850Z,97830.14
2024-04-17T07:38:02.812Z,97832.21
2024-04-17T07:40:05.874Z,97833.39
2024-04-17T07:42:08.306Z,97832.61
2024-04-17T07:44:10.839Z,97833.45
2024-04-17T07:46:13.344Z,97835.33
2024-04-17T07:48:15.823Z,97835.87
2024-04-17T07:50:19.666Z,97841.48
2024-04-17T07:52:22.083Z,97840.77
2024-04-17T07:54:24.508Z,97844.60
2024-04-17T07:56:27.083Z,97844.36
2024-04-17T07:58:29.509Z,97840.45
2024-04-17T08:00:33.124Z,97844.29
2024-04-17T08:02:35.677Z,97843.17
2024-04-17T08:04:38.176Z,97846.85
2024-04-17T08:06:40.522Z,97849.46
2024-04-17T08:08:43.100Z,97850.08
2024-04-17T08:10:45.557Z,97850.81
2024-04-17T08:12:48.736Z,97848.27
2024-04-17T08:14:52.140Z,97849.81
2024-04-17T08:16:54.669Z,97850.35
2024-04-17T08:18:58.133Z,97848.30
2024-04-17T08:21:03.649Z,97844.86
2024-04-17T08:23:06.306Z,97844.73
2024-04-17T08:25:08.861Z,97850.80
2024-04-17T08:27:11.369Z,97846.95
2024-04-17T08:29:14.196Z,97845.95
2024-04-17T08:31:16.781Z,97846.20
2024-04-17T08:33:19.266Z,97849.23
2024-04-17T08:35:22.670Z,97844.00
2024-04-17T08:37:25.327Z,97845.28
2024-04-17T08:39:27.901Z,97844.48
2024-04-17T08:41:36.003Z,97843.37
2024-04-17T08:43:41.712Z,97848.75
2024-04-17T08:45:50.057Z,97851.27
2024-04-17T08:47:55.164Z,97850.60
2024-04-17T08:50:00.905Z,97851.63
2024-04-17T08:52:04.091Z,97854.73
2024-04-17T08:54:07.590Z,97858.63
2024-04-17T08:56:14.336Z,97854.85
2024-04-17T08:58:17.496Z,97854.73
2024-04-17T09:00:20.658Z,97854.31
2024-04-17T09:02:24.675Z,97848.71
2024-04-17T09:04:28.563Z,97847.77
2024-04-17T09:06:31.920Z,97849.89
2024-04-17T09:08:34.758Z,97844.67
2024-04-17T09:10:37.312Z,97845.54
2024-04-17T09:12:46.091Z,97841.31
2024-04-17T09:14:55.402Z,97843.04
2024-04-17T09:17:00.403Z,97845.17
2024-04-17T09:19:03.334Z,97844.61
2024-04-17T09:21:06.640Z,97844.63
2024-04-17T09:23:10.238Z,97843.53
2024-04-17T09:25:16.870Z,97840.25
2024-04-17T09:27:19.599Z,97837.76
2024-04-17T09:29:22.341Z,97840.52
2024-04-17T09:31:25.055Z,97842.23
2024-04-17T09:33:28.905Z,97842.21
2024-04-17T09:35:31.623Z,97839.52
2024-04-17T09:37:34.517Z,97840.02
2024-04-17T09:39:37.508Z,97836.66
2024-04-17T09:41:45.562Z,97838.23
2024-04-17T09:43:55.790Z,97837.23
2024-04-17T09:46:02.272Z,97836.69
2024-04-17T09:48:09.735Z,97838.48
2024-04-17T09:50:18.461Z,97839.29
2024-04-17T09:52:21.419Z,97839.64
2024-04-17T09:54:24.568Z,97837.91
2024-04-17T09:56:28.240Z,97836.98
2024-04-17T09:58:37.375Z,97834.91
2024-04-17T10:00:41.111Z,97831.55
2024-04-17T10:02:45.309Z,97835.23
2024-04-17T10:04:53.949Z,97827.98
2024-04-17T10:07:00.941Z,97830.73
2024-04-17T10:09:06.229Z,97828.13
2024-04-17T10:11:09.963Z,97832.59
2024-04-17T10:13:13.096Z,97840.59
2024-04-17T10:15:16.764Z,97845.61
2024-04-17T10:17:30.099Z,97840.20
2024-04-17T10:19:38.200Z,97849.56
2024-04-17T10:21:42.917Z,97852.17
2024-04-17T10:23:45.281Z,97857.98
2024-04-17T10:25:58.280Z,97859.82
2024-04-17T10:28:27.679Z,97861.50
2024-04-17T10:30:35.439Z,97862.52
2024-04-17T10:32:38.105Z,97869.39
2024-04-17T10:34:48.335Z,97870.33
2024-04-17T10:37:03.973Z,97874.11
2024-04-17T10:39:06.881Z,97874.04
2024-04-17T10:41:12.640Z,97875.69
2024-04-17T10:43:15.644Z,97878.66
2024-04-17T10:45:18.183Z,97880.27
2024-04-17T10:47:30.609Z,97877.66
2024-04-17T10:49:42.008Z,97875.23
2024-04-17T10:51:45.155Z,97872.88
2024-04-17T10:53:48.848Z,97866.05
2024-04-17T10:55:52.047Z,97868.54
2024-04-17T10:57:54.887Z,97860.92
2024-04-17T10:59:57.380Z,97859.34
2024-04-17T11:02:00.144Z,97858.98
2024-04-17T11:04:02.887Z,97858.13
2024-04-17T11:06:12.048Z,97856.98
2024-04-17T11:08:15.416Z,97856.55
2024-04-17T11:10:17.830Z,97858.98
2024-04-17T11:12:21.011Z,97860.98
2024-04-17T11:14:23.466Z,97863.57
2024-04-17T11:16:26.002Z,97862.16
2024-04-17T11:18:32.789Z,97864.53
2024-04-17T11:20:37.636Z,97860.55
2024-04-17T11:22:41.650Z,97861.23
2024-04-17T11:24:53.943Z,97862.52
2024-04-17T11:26:56.295Z,97862.63
2024-04-17T11:28:59.009Z,97866.72
2024-04-17T11:31:01.657Z,97870.41
2024-04-17T11:33:04.803Z,97867.91
2024-04-17T11:35:16.011Z,97871.12
2024-04-17T11:37:18.796Z,97880.30
2024-04-17T11:39:21.674Z,97879.95
2024-04-17T11:41:24.039Z,97878.23
2024-04-17T11:43:27.242Z,97880.52
2024-04-17T11:45:30.388Z,97881.61
2024-04-17T11:47:32.952Z,97882.03
2024-04-17T11:49:35.596Z,97882.17
2024-04-17T11:51:38.125Z,97881.11
2024-04-17T11:53:41.342Z,97882.34
2024-04-17T11:55:43.819Z,97885.42
2024-04-17T11:57:46.368Z,97881.09
2024-04-17T11:59:49.160Z,97886.60
2024-04-17T12:01:51.695Z,97885.21
2024-04-17T12:03:54.230Z,97888.48
2024-04-17T12:05:56.706Z,97888.33
2024-04-17T12:08:00.026Z,97880.34
2024-04-17T12:10:04.184Z,97880.91
2024-04-17T12:12:08.222Z,97879.23
2024-04-17T12:14:10.695Z,97877.21
2024-04-17T12:16:13.127Z,97876.64
2024-04-17T12:18:15.652Z,97874.71
2024-04-17T12:20:18.354Z,97876.41
2024-04-17T12:22:20.790Z,97873.02
2024-04-17T12:24:43.212Z,97878.00
2024-04-17T12:26:53.296Z,97875.88
2024-04-17T12:28:55.910Z,97877.91
2024-04-17T12:30:58.766Z,97878.94
2024-04-17T12:33:01.286Z,97879.14
2024-04-17T12:35:06.146Z,97879.60
2024-04-17T12:37:11.078Z,97877.56
2024-04-17T12:39:13.746Z,97872.25
2024-04-17T12:41:19.122Z,97875.80
2024-04-17T12:43:21.771Z,97876.09
2024-04-17T12:45:24.220Z,97879.76
2024-04-17T12:47:27.570Z,97876.56
2024-04-17T12:49:30.056Z,97884.91
2024-04-17T12:51:32.633Z,97889.81
2024-04-17T12:53:35.142Z,97894.14
2024-04-17T12:55:37.884Z,97897.64
2024-04-17T12:57:42.165Z,97900.05
2024-04-17T12:59:44.563Z,97896.00
2024-04-17T13:01:46.914Z,97895.17
2024-04-17T13:03:49.450Z,97889.98
2024-04-17T13:06:00.623Z,97880.92
2024-04-17T13:08:03.326Z,97881.11
2024-04-17T13:10:09.627Z,97874.59
2024-04-17T13:12:12.983Z,97874.55
2024-04-17T13:14:16.908Z,97870.35
2024-04-17T13:16:19.306Z,97865.61
2024-04-17T13:18:21.879Z,97864.64
2024-04-17T13:20:24.504Z,97866.64
2024-04-17T13:22:28.378Z,97863.01
2024-04-17T13:24:31.250Z,97869.34
2024-04-17T13:26:33.863Z,97868.23
2024-04-17T13:28:36.831Z,97860.21
2024-04-17T13:30:39.226Z,97861.88
2024-04-17T13:32:41.723Z,97858.60
2024-04-17T13:34:44.154Z,97852.54
2024-04-17T13:36:46.632Z,97850.84
2024-04-17T13:38:49.409Z,97841.81
2024-04-17T13:40:59.318Z,97836.52
2024-04-17T13:43:01.753Z,97834.06
2024-04-17T13:45:06.316Z,97836.65
2024-04-17T13:47:08.895Z,97836.63
2024-04-17T13:49:11.372Z,97834.52
2024-04-17T13:51:13.821Z,97834.27
2024-04-17T13:53:16.267Z,97834.58
2024-04-17T13:55:19.067Z,97832.02
2024-04-17T13:57:21.471Z,97834.25
2024-04-17T13:59:23.997Z,97836.34
2024-04-17T14:01:26.464Z,97837.26
2024-04-17T14:03:29.097Z,97836.73
2024-04-17T14:05:35.883Z,97842.38
2024-04-17T14:07:38.414Z,97852.27
2024-04-17T14:09:40.936Z,97848.77
2024-04-17T14:11:43.435Z,97843.38
2024-04-17T14:13:45.906Z,97842.16
2024-04-17T14:15:48.427Z,97836.05
2024-04-17T14:17:51.387Z,97836.02
2024-04-17T14:19:54.170Z,97832.77
2024-04-17T14:21:57.604Z,97827.89
2024-04-17T14:24:00.429Z,97821.93
2024-04-17T14:26:03.620Z,97816.58
2024-04-17T14:28:07.247Z,97817.40
2024-04-17T14:30:12.648Z,97819.20
2024-04-17T14:32:17.983Z,97821.77
2024-04-17T14:34:20.837Z,97822.84
2024-04-17T14:36:27.948Z,97815.16
2024-04-17T14:38:31.016Z,97812.56
2024-04-17T14:40:33.511Z,97815.39
2024-04-17T14:42:36.679Z,97817.20
2024-04-17T14:44:40.133Z,97819.50
2024-04-17T14:46:43.127Z,97818.55
2024-04-17T14:48:45.536Z,97815.08
2024-04-17T14:50:47.915Z,97814.83
2024-04-17T14:52:50.306Z,97815.22
2024-04-17T14:54:52.790Z,97815.59
2024-04-17T14:56:55.147Z,97816.31
2024-04-17T14:58:57.546Z,97813.08
2024-04-17T15:01:00.824Z,97811.53
2024-04-17T15:03:05.554Z,97813.29
2024-04-17T15:05:08.914Z,97813.70
2024-04-17T15:07:11.488Z,97814.85
2024-04-17T15:09:14.167Z,97817.23
2024-04-17T15:11:17.363Z,97815.08
2024-04-17T15:13:20.206Z,97814.62
2024-04-17T15:15:22.691Z,97817.80
2024-04-17T15:17:25.492Z,97818.18
2024-04-17T15:19:30.151Z,97815.08
2024-04-17T15:21:32.950Z,97815.92
2024-04-17T15:23:36.786Z,97816.92
2024-04-17T15:25:39.207Z,97818.46
2024-04-17T15:27:41.750Z,97819.00
2024-04-17T15:29:45.480Z,97819.90
2024-04-17T15:31:47.904Z,97823.23
2024-04-17T15:33:55.330Z,97825.24
2024-04-17T15:35:58.874Z,97826.95
2024-04-17T15:38:01.673Z,97826.47
2024-04-17T15:40:04.674Z,97825.48
2024-04-17T15:42:07.189Z,97827.01
2024-04-17T15:44:09.778Z,97826.00
2024-04-17T15:46:13.880Z,97827.38
2024-04-17T15:48:16.405Z,97831.09
2024-04-17T15:50:18.951Z,97843.34
2024-04-17T15:52:21.308Z,97846.63
2024-04-17T15:54:25.264Z,97849.66
2024-04-17T15:56:28.530Z,97844.72
2024-04-17T15:58:30.939Z,97845.84
2024-04-17T16:00:33.298Z,97842.61
2024-04-17T16:02:37.833Z,97839.88
2024-04-17T16:04:40.338Z,97835.33
2024-04-17T16:06:42.798Z,97832.95
2024-04-17T16:08:45.766Z,97833.48
2024-04-17T16:11:01.124Z,97832.39
2024-04-17T16:13:04.054Z,97831.24
2024-04-17T16:15:10.637Z,97827.80
2024-04-17T16:17:13.486Z,97827.52
2024-04-17T16:19:15.963Z,97825.33
2024-04-17T16:21:19.152Z,97828.46
2024-04-17T16:23:23.061Z,97831.39
2024-04-17T16:25:25.459Z,97833.23
2024-04-17T16:27:27.841Z,97834.46
2024-04-17T16:29:30.260Z,97835.13
2024-04-17T16:31:32.816Z,97839.79
2024-04-17T16:33:35.418Z,97841.30
2024-04-17T16:35:37.901Z,97842.21
2024-04-17T16:37:40.305Z,97843.98
2024-04-17T16:39:44.719Z,97845.48
2024-04-17T16:41:47.213Z,97845.38
2024-04-17T16:43:49.821Z,97849.00
2024-04-17T16:46:01.595Z,97850.89
2024-04-17T16:48:04.218Z,97853.05
2024-04-17T16:50:07.108Z,97856.34
2024-04-17T16:52:09.444Z,97858.29
2024-04-17T16:54:13.763Z,97860.09
2024-04-17T16:56:18.105Z,97861.44
2024-04-17T16:58:23.816Z,97864.22
2024-04-17T17:00:26.512Z,97861.69
2024-04-17T17:02:30.125Z,97861.63
2024-04-17T17:04:34.267Z,97860.79
2024-04-17T17:06:38.215Z,97853.70
2024-04-17T17:08:42.138Z,97854.13
2024-04-17T17:10:52.036Z,97856.26
2024-04-17T17:12:58.295Z,97856.45
2024-04-17T17:15:00.876Z,97859.80
2024-04-17T17:17:04.965Z,97853.14
2024-04-17T17:19:08.919Z,97853.61
2024-04-17T17:21:14.994Z,97851.98
2024-04-17T17:23:20.981Z,97851.84
2024-04-17T17:25:39.479Z,97852.36
2024-04-17T17:27:43.233Z,97849.95
2024-04-17T17:29:48.909Z,97853.98
2024-04-17T17:31:52.431Z,97853.27
2024-04-17T17:33:57.068Z,97854.46
2024-04-17T17:36:04.430Z,97851.28
2024-04-17T17:38:09.196Z,97850.46
2024-04-17T17:40:12.907Z,97853.89
2024-04-17T17:42:18.357Z,97852.79
2024-04-17T17:44:20.749Z,97854.73
2024-04-17T17:46:24.760Z,97855.40
2024-04-17T17:48:28.859Z,97854.58
2024-04-17T17:50:32.570Z,97860.81
2024-04-17T17:52:36.147Z,97869.04
2024-04-17T17:54:40.397Z,97868.75
2024-04-17T17:56:42.935Z,97873.61
2024-04-17T17:58:48.231Z,97875.41
2024-04-17T18:00:52.923Z,97873.75
2024-04-17T18:02:56.744Z,97875.65
2024-04-17T18:04:59.137Z,97881.96
2024-04-17T18:07:02.968Z,97880.24
2024-04-17T18:09:10.047Z,97882.77
2024-04-17T18:11:15.458Z,97883.53
2024-04-17T18:13:20.395Z,97885.94
2024-04-17T18:15:24.570Z,97887.73
2024-04-17T18:17:29.322Z,97891.92
2024-04-17T18:19:31.764Z,97895.74
2024-04-17T18:21:35.693Z,97902.27
2024-04-17T18:23:41.433Z,97903.77
2024-04-17T18:25:45.121Z,97906.39
2024-04-17T18:27:48.923Z,97909.79
2024-04-17T18:29:51.220Z,97914.14
2024-04-17T18:31:54.938Z,97919.48
2024-04-17T18:33:58.972Z,97920.73
2024-04-17T18:36:04.392Z,97922.63
2024-04-17T18:38:08.208Z,97929.65
2024-04-17T18:40:14.460Z,97933.80
2024-04-17T18:42:18.234Z,97934.98
2024-04-17T18:44:23.456Z,97936.27
2024-04-17T18:46:33.480Z,97936.55
2024-04-17T18:48:38.251Z,97939.27
2024-04-17T18:50:42.695Z,97946.66
2024-04-17T18:52:46.513Z,97945.98
2024-04-17T18:54:51.030Z,97950.92
2024-04-17T18:56:55.116Z,97952.42
2024-04-17T18:58:59.631Z,97950.25
2024-04-17T19:01:08.844Z,97953.64
2024-04-17T19:03:12.994Z,97953.84
2024-04-17T19:05:17.021Z,97956.77
2024-04-17T19:07:22.448Z,97956.77
2024-04-17T19:09:25.809Z,97955.04
2024-04-17T19:11:30.090Z,97958.95
2024-04-17T19:13:34.377Z,97958.20
2024-04-17T19:15:42.021Z,97957.41
2024-04-17T19:17:44.476Z,97959.47
2024-04-17T19:19:48.761Z,97962.44
2024-04-17T19:21:55.226Z,97963.45
2024-04-17T19:23:59.759Z,97963.30
2024-04-17T19:26:05.176Z,97960.20
2024-04-17T19:28:09.492Z,97961.61
2024-04-17T19:30:14.477Z,97964.54
2024-04-17T19:32:18.940Z,97966.57
2024-04-17T19:34:23.576Z,97965.15
2024-04-17T19:36:28.872Z,97965.33
2024-04-17T19:38:38.112Z,97967.73
2024-04-17T19:40:45.837Z,97968.16
2024-04-17T19:42:56.610Z,97969.78
2024-04-17T19:45:03.848Z,97970.41
2024-04-17T19:47:08.463Z,97974.23
2024-04-17T19:49:14.783Z,97971.90
2024-04-17T19:51:18.767Z,97974.92
2024-04-17T19:53:23.883Z,97977.06
2024-04-17T19:55:29.592Z,97976.72
2024-04-17T19:57:52.309Z,97978.77
2024-04-17T19:59:55.499Z,97978.02
2024-04-17T20:01:58.428Z,97976.77
2024-04-17T20:04:01.202Z,97978.39
2024-04-17T20:06:06.144Z,97980.56
2024-04-17T20:08:08.567Z,97982.35
2024-04-17T20:10:18.483Z,97988.22
2024-04-17T20:12:22.626Z,97991.16
2024-04-17T20:14:27.028Z,97999.33
2024-04-17T20:16:31.594Z,98000.26
2024-04-17T20:18:36.875Z,98004.41
2024-04-17T20:21:01.006Z,98004.95
2024-04-17T20:23:04.770Z,98000.56
2024-04-17T20:25:09.991Z,98004.00
2024-04-17T20:27:12.558Z,98007.00
2024-04-17T20:29:16.368Z,98002.90
2024-04-17T20:31:21.162Z,98006.67
2024-04-17T20:33:25.346Z,98008.19
2024-04-17T20:35:28.039Z,98009.80
2024-04-17T20:37:37.816Z,98011.75
2024-04-17T20:39:42.232Z,98015.93
2024-04-17T20:41:46.124Z,98019.44
2024-04-17T20:43:48.660Z,98019.02
2024-04-17T20:45:52.261Z,98017.07
2024-04-17T20:47:56.514Z,98022.73
2024-04-17T20:50:03.115Z,98020.66
2024-04-17T20:52:07.814Z,98023.04
2024-04-17T20:54:10.370Z,98024.11
2024-04-17T20:56:12.985Z,98027.36
2024-04-17T20:58:15.520Z,98027.63
2024-04-17T21:00:18.088Z,98030.78
2024-04-17T21:02:20.673Z,98032.09
2024-04-17T21:04:23.099Z,98033.58
2024-04-17T21:06:25.717Z,98037.97
2024-04-17T21:08:28.549Z,98037.98
2024-04-17T21:10:31.219Z,98042.00
2024-04-17T21:12:33.683Z,98043.80
2024-04-17T21:14:36.499Z,98040.27
2024-04-17T21:16:38.937Z,98043.30
2024-04-17T21:18:42.473Z,98048.40
2024-04-17T21:20:44.904Z,98052.77
2024-04-17T21:22:47.253Z,98052.92
2024-04-17T21:24:50.264Z,98056.94
2024-04-17T21:26:52.696Z,98054.64
2024-04-17T21:28:56.292Z,98061.19
2024-04-17T21:30:58.838Z,98064.02
2024-04-17T21:33:01.497Z,98067.48
2024-04-17T21:35:06.685Z,98069.05
2024-04-17T21:37:10.624Z,98067.02
2024-04-17T21:39:13.433Z,98071.41
2024-04-17T21:41:16.053Z,98069.77
2024-04-17T21:43:18.693Z,98072.33
2024-04-17T21:45:21.428Z,98073.23
2024-04-17T21:47:24.420Z,98071.77
2024-04-17T21:49:26.912Z,98076.17
2024-04-17T21:51:29.439Z,98072.31
2024-04-17T21:53:32.555Z,98069.89
2024-04-17T21:55:34.954Z,98068.61
2024-04-17T21:57:37.464Z,98067.25
2024-04-17T21:59:39.871Z,98068.04
2024-04-17T22:01:43.145Z,98066.86
2024-04-17T22:03:46.027Z,98065.76
2024-04-17T22:05:51.477Z,98071.01
2024-04-17T22:07:53.853Z,98074.05
2024-04-17T22:09:56.252Z,98076.90
2024-04-17T22:11:59.146Z,98078.05
2024-04-17T22:14:01.573Z,98080.33
2024-04-17T22:16:04.185Z,98081.59
2024-04-17T22:18:06.837Z,98082.66
2024-04-17T22:20:09.344Z,98083.71
2024-04-17T22:22:12.668Z,98084.25
2024-04-17T22:24:15.177Z,98079.52
2024-04-17T22:26:18.670Z,98080.71
2024-04-17T22:28:21.090Z,98076.74
2024-04-17T22:30:23.927Z,98079.51
2024-04-17T22:32:26.375Z,98080.64
2024-04-17T22:34:29.914Z,98080.98
2024-04-17T22:36:32.779Z,98080.23
2024-04-17T22:38:35.188Z,98080.09
2024-04-17T22:40:37.579Z,98083.52
2024-04-17T22:42:40.370Z,98081.36
2024-04-17T22:44:42.885Z,98081.32
2024-04-17T22:46:45.519Z,98083.37
2024-04-17T22:48:48.092Z,98083.39
2024-04-17T22:50:50.580Z,98087.60
2024-04-17T22:52:52.981Z,98092.91
2024-04-17T22:54:55.730Z,98090.36
2024-04-17T22:57:00.408Z,98095.78
2024-04-17T22:59:02.968Z,98097.94
2024-04-17T23:01:05.456Z,98097.02
2024-04-17T23:03:07.947Z,98097.48
2024-04-17T23:05:10.364Z,98099.13
2024-04-17T23:07:12.907Z,98096.88
2024-04-17T23:09:15.284Z,98095.33
2024-04-17T23:11:17.762Z,98097.83
2024-04-17T23:13:20.166Z,98096.13
2024-04-17T23:15:22.638Z,98098.76
2024-04-17T23:17:25.081Z,98096.23
2024-04-17T23:19:27.450Z,98098.61
2024-04-17T23:21:30.067Z,98099.31
2024-04-17T23:23:33.109Z,98100.43
2024-04-17T23:25:36.757Z,98102.26
2024-04-17T23:27:39.368Z,98107.81
2024-04-17T23:29:41.922Z,98103.69
2024-04-17T23:31:44.379Z,98104.64
2024-04-17T23:33:47.213Z,98104.65
2024-04-17T23:35:49.793Z,98105.50
2024-04-17T23:37:52.559Z,98103.55
2024-04-17T23:39:55.431Z,98102.77
2024-04-17T23:41:57.801Z,98106.91
2024-04-17T23:44:00.239Z,98110.04
2024-04-17T23:46:02.683Z,98111.16
2024-04-17T23:48:05.791Z,98111.05
2024-04-17T23:50:08.232Z,98114.33
2024-04-17T23:52:10.877Z,98114.48
2024-04-17T23:54:13.542Z,98116.49
2024-04-17T23:56:17.380Z,98112.42
2024-04-17T23:58:19.898Z,98114.41
